Aeroporto :
LOGIN :

Iscrizione | Disclaimer

   EN    FR    IT 

 










Sommario :    VFR   VFR Marginale   IFR   IFR Intensivo   IFR Molto Intensivo
Visibilità : 
Base nubi : 
>= 8 km
>= 3000ft
5 / 8 km
1000 / 3000 ft
1500m / 5 km
500 / 1000 ft
800 / 1500m
200 / 500 ft
< 800m
< 200 ft
Simboli :   Temporali  Nebbia  Neve Forte  Precipitazioni Forti  Vento > 20 kt
SIGMETs :   Varie  Temporali  Ghiacco  Turbolenza  Onda orograficha  Ceneri Vulcaniche






- Altitudine del aeroporto : 616 ft
- Codice IATA : PUF


LFBP - Pau

ULTIMO METAR :
  • 311030Z AUTO 06007KT 020V100 CAVOK 28/15 Q1011 NOSIG

METARs OBSOLETI :
  • 311000Z AUTO 07005KT 020V130 CAVOK 27/14 Q1011 NOSIG
  • 310930Z AUTO 05006KT 340V100 CAVOK 27/16 Q1011 NOSIG
  • 310900Z AUTO 06005KT 010V130 CAVOK 26/15 Q1011 NOSIG
  • 310830Z AUTO 09005KT 060V150 CAVOK 26/16 Q1011 NOSIG
  • 310800Z AUTO 10003KT 020V150 CAVOK 25/15 Q1011 NOSIG

TAF TAF LFBP
Valido dal 31 a 06 ore il 01 a 06 ore UTC


310500Z 3106/0106 08007KT CAVOK
TEMPO 3119/0106 FEW050CB SCT060TCU
PROB40
TEMPO 3119/0102 27010G20KT -SHRA



MetMap, La meteo Aeronautica in un colpo d'occhio ! - Copyright ORBIFLY Dicembre 2007 - Disclaimer

ORBIFLY MET'MAP TEAM :

Programmazione e sviluppo : Alexandra Zaïnal
Concezione : Baudouin d'Aumeries
Aiuto per la programmazione : Marc-Olivier Méhu
Supporto tecnico e logistico : Manuel Goepfert
Aiuto per la traduzione : Arnaldo La Scala

Contatto : metmap@orbifly.com




FONTI E CREDITI :

   NOAA